createdAt,value
2019-06-10T00:00:16.381Z,46.8
2019-06-10T00:03:15.867Z,47.6
2019-06-10T00:06:15.299Z,47.4
2019-06-10T00:09:15.461Z,47.8
2019-06-10T00:12:15.686Z,47.5
2019-06-10T00:15:15.851Z,47.3
2019-06-10T00:18:34.274Z,47.6
2019-06-10T00:21:15.604Z,47.5
2019-06-10T00:24:15.334Z,47.4
2019-06-10T00:27:15.835Z,47.1
2019-06-10T00:30:15.771Z,46.8
2019-06-10T00:33:15.876Z,47.1
2019-06-10T00:36:15.535Z,46.8
2019-06-10T00:39:15.411Z,47.0
2019-06-10T00:42:15.825Z,46.9
2019-06-10T00:45:17.968Z,46.9
2019-06-10T00:48:24.140Z,47.1
2019-06-10T00:51:15.653Z,47.0
2019-06-10T00:54:15.965Z,46.6
2019-06-10T00:57:15.875Z,47.2
2019-06-10T01:00:24.832Z,47.7
2019-06-10T01:03:15.379Z,48.3
2019-06-10T01:06:15.894Z,48.7
2019-06-10T01:09:15.329Z,49.1
2019-06-10T01:12:15.451Z,49.1
2019-06-10T01:15:15.323Z,48.9
2019-06-10T01:18:31.951Z,49.1
2019-06-10T01:21:15.471Z,48.8
2019-06-10T01:24:15.787Z,48.8
2019-06-10T01:27:15.949Z,48.7
2019-06-10T01:30:21.634Z,49.1
2019-06-10T01:33:16.420Z,49.6
2019-06-10T01:36:16.547Z,49.8
2019-06-10T01:39:16.842Z,50.3
2019-06-10T01:42:15.948Z,50.2
2019-06-10T01:45:15.868Z,50.2
2019-06-10T01:48:16.453Z,50.1
2019-06-10T01:51:15.991Z,49.9
2019-06-10T01:54:15.604Z,49.9
2019-06-10T01:57:15.738Z,50.0
2019-06-10T02:00:19.687Z,50.1
2019-06-10T02:03:17.200Z,50.1
2019-06-10T02:06:19.444Z,50.0
2019-06-10T02:09:16.797Z,50.2
2019-06-10T02:12:17.653Z,51.2
2019-06-10T02:15:16.797Z,51.6
2019-06-10T02:18:16.403Z,52.4
2019-06-10T02:21:17.900Z,55.7
2019-06-10T02:24:16.125Z,56.7
2019-06-10T02:27:16.304Z,54.3
2019-06-10T02:30:24.265Z,54.8
2019-06-10T02:33:18.993Z,57.3
2019-06-10T02:36:19.350Z,58.7
2019-06-10T02:39:21.510Z,56.6
2019-06-10T02:42:17.942Z,57.5
2019-06-10T02:45:19.742Z,57.3
2019-06-10T02:48:17.983Z,56.8
2019-06-10T02:51:17.379Z,56.9
2019-06-10T02:54:17.990Z,57.7
2019-06-10T02:57:18.021Z,57.1
2019-06-10T03:00:22.675Z,56.3
2019-06-10T03:03:22.893Z,56.8
2019-06-10T03:06:17.943Z,57.0
2019-06-10T03:09:16.612Z,56.4
2019-06-10T03:12:15.646Z,56.4
2019-06-10T03:15:15.781Z,56.1
2019-06-10T03:18:15.789Z,56.0
2019-06-10T03:21:15.933Z,56.0
2019-06-10T03:24:16.811Z,55.7
2019-06-10T03:27:16.341Z,55.2
2019-06-10T03:30:20.858Z,55.5
2019-06-10T03:33:15.401Z,55.9
2019-06-10T03:36:16.177Z,56.3
2019-06-10T03:39:16.229Z,56.2
2019-06-10T03:42:16.700Z,55.9
2019-06-10T03:45:15.074Z,56.1
2019-06-10T03:48:17.018Z,55.7
2019-06-10T03:51:15.362Z,55.7
2019-06-10T03:54:15.581Z,55.5
2019-06-10T03:57:17.095Z,55.4
2019-06-10T04:00:15.311Z,54.9
2019-06-10T04:03:15.050Z,54.7
2019-06-10T04:06:15.320Z,56.2
2019-06-10T04:09:15.195Z,56.6
2019-06-10T04:12:15.291Z,56.0
2019-06-10T04:15:15.042Z,55.9
2019-06-10T04:18:14.925Z,55.8
2019-06-10T04:21:15.148Z,56.2
2019-06-10T04:24:15.012Z,56.4
2019-06-10T04:27:15.223Z,56.6
2019-06-10T04:30:16.561Z,56.8
2019-06-10T04:33:15.004Z,56.7
2019-06-10T04:36:15.289Z,57.0
2019-06-10T04:39:15.702Z,56.5
2019-06-10T04:42:15.075Z,56.6
2019-06-10T04:45:15.318Z,55.8
2019-06-10T04:48:15.715Z,55.9
2019-06-10T04:51:15.134Z,55.9
2019-06-10T04:54:15.374Z,55.8
2019-06-10T04:57:15.703Z,55.6
2019-06-10T05:00:15.512Z,55.3
2019-06-10T05:03:15.502Z,55.4
2019-06-10T05:06:15.371Z,55.0
2019-06-10T05:09:15.212Z,54.3
2019-06-10T05:12:15.974Z,54.1
2019-06-10T05:15:14.993Z,53.7
2019-06-10T05:18:15.446Z,53.8
2019-06-10T05:21:15.728Z,53.7
2019-06-10T05:24:15.180Z,53.8
2019-06-10T05:27:15.091Z,53.9
2019-06-10T05:30:15.319Z,54.1
2019-06-10T05:33:15.427Z,53.7
2019-06-10T05:36:15.732Z,53.1
2019-06-10T05:39:15.509Z,52.8
2019-06-10T05:42:15.535Z,52.7
2019-06-10T05:45:15.367Z,52.2
2019-06-10T05:48:16.783Z,52.0
2019-06-10T05:51:15.485Z,51.6
2019-06-10T05:54:15.307Z,51.7
2019-06-10T05:57:15.569Z,51.0
2019-06-10T06:00:15.384Z,50.7
2019-06-10T06:03:15.555Z,50.5
2019-06-10T06:06:15.070Z,50.2
2019-06-10T06:09:15.162Z,50.5
2019-06-10T06:12:15.367Z,50.8
2019-06-10T06:15:15.671Z,50.7
2019-06-10T06:18:15.045Z,51.1
2019-06-10T06:21:25.844Z,51.1
2019-06-10T06:24:15.291Z,51.2
2019-06-10T06:27:15.518Z,51.3
2019-06-10T06:30:18.265Z,51.3
2019-06-10T06:33:15.577Z,51.5
2019-06-10T06:36:15.062Z,51.7
2019-06-10T06:39:16.023Z,51.4
2019-06-10T06:42:15.901Z,51.3
2019-06-10T06:45:15.678Z,51.1
2019-06-10T06:48:15.804Z,50.5
2019-06-10T06:51:15.718Z,50.2
2019-06-10T06:54:15.392Z,49.6
2019-06-10T06:57:15.145Z,48.8
2019-06-10T07:00:40.825Z,47.9
2019-06-10T07:03:15.082Z,47.9
2019-06-10T07:06:15.377Z,47.6
2019-06-10T07:09:15.939Z,46.1
2019-06-10T07:12:15.486Z,44.4
2019-06-10T07:15:14.976Z,44.3
2019-06-10T07:18:15.843Z,43.3
2019-06-10T07:21:15.728Z,42.1
2019-06-10T07:24:15.736Z,41.1
2019-06-10T07:27:15.843Z,40.2
2019-06-10T07:30:15.361Z,37.9
2019-06-10T07:33:15.005Z,37.9
2019-06-10T07:36:15.142Z,38.0
2019-06-10T07:39:15.626Z,38.1
2019-06-10T07:42:15.440Z,37.9
2019-06-10T07:45:15.645Z,39.2
2019-06-10T07:48:14.964Z,39.2
2019-06-10T07:51:16.080Z,40.1
2019-06-10T07:54:15.499Z,41.3
2019-06-10T07:57:15.562Z,42.1
2019-06-10T08:00:15.650Z,41.9
2019-06-10T08:03:15.369Z,41.2
2019-06-10T08:06:15.216Z,40.3
2019-06-10T08:09:15.105Z,38.6
2019-06-10T08:12:15.956Z,39.1
2019-06-10T08:15:16.015Z,39.2
2019-06-10T08:18:14.929Z,38.9
2019-06-10T08:21:15.219Z,39.3
2019-06-10T08:24:15.833Z,39.5
2019-06-10T08:27:15.429Z,39.3
2019-06-10T08:30:23.043Z,39.6
2019-06-10T08:33:15.584Z,39.5
2019-06-10T08:36:15.583Z,37.7
2019-06-10T08:39:16.112Z,36.0
2019-06-10T08:42:16.150Z,33.9
2019-06-10T08:45:15.832Z,33.1
2019-06-10T08:48:15.819Z,31.0
2019-06-10T08:51:15.341Z,29.3
2019-06-10T08:54:15.776Z,26.5
2019-06-10T08:57:15.823Z,25.3
2019-06-10T09:00:18.584Z,26.1
2019-06-10T09:03:15.397Z,27.4
2019-06-10T09:06:15.963Z,28.9
2019-06-10T09:09:15.349Z,29.3
2019-06-10T09:12:28.688Z,31.3
2019-06-10T09:15:15.157Z,33.2
2019-06-10T09:18:19.953Z,34.8
2019-06-10T09:21:15.251Z,36.3
2019-06-10T09:24:15.474Z,36.9
2019-06-10T09:27:15.237Z,37.6
2019-06-10T09:30:15.307Z,36.7
2019-06-10T09:33:15.855Z,35.9
2019-06-10T09:36:15.591Z,34.8
2019-06-10T09:39:16.006Z,32.4
2019-06-10T09:42:15.327Z,30.0
2019-06-10T09:45:15.687Z,27.8
2019-06-10T09:48:15.653Z,27.4
2019-06-10T09:51:15.246Z,25.8
2019-06-10T09:54:15.875Z,27.1
2019-06-10T09:57:16.091Z,27.4
2019-06-10T10:00:16.093Z,28.9
2019-06-10T10:03:15.777Z,30.8
2019-06-10T10:06:16.191Z,31.5
2019-06-10T10:09:15.095Z,31.7
2019-06-10T10:12:15.111Z,31.2
2019-06-10T10:15:26.557Z,30.6
2019-06-10T10:18:15.575Z,29.8
2019-06-10T10:21:16.108Z,29.1
2019-06-10T10:24:15.302Z,28.1
2019-06-10T10:27:15.523Z,25.8
2019-06-10T10:30:15.793Z,25.8
2019-06-10T10:33:15.824Z,26.0
2019-06-10T10:36:15.115Z,25.0
2019-06-10T10:39:16.085Z,25.8
2019-06-10T10:42:15.184Z,25.7
2019-06-10T10:45:15.391Z,27.0
2019-06-10T10:48:15.470Z,25.9
2019-06-10T10:51:15.476Z,26.0
2019-06-10T10:54:25.535Z,25.8
2019-06-10T10:57:15.150Z,25.8
2019-06-10T11:00:15.333Z,25.3
2019-06-10T11:03:15.551Z,25.9
2019-06-10T11:06:15.406Z,26.9
2019-06-10T11:09:15.691Z,26.3
2019-06-10T11:12:15.544Z,26.7
2019-06-10T11:15:15.502Z,27.5
2019-06-10T11:18:15.843Z,29.0
2019-06-10T11:21:15.361Z,30.1
2019-06-10T11:24:32.472Z,31.0
2019-06-10T11:27:15.407Z,31.6
2019-06-10T11:30:15.981Z,32.3
2019-06-10T11:33:15.933Z,33.1
2019-06-10T11:36:16.008Z,33.1
2019-06-10T11:39:15.899Z,33.4
2019-06-10T11:42:15.620Z,32.6
2019-06-10T11:45:15.873Z,32.4
2019-06-10T11:48:15.333Z,31.7
2019-06-10T11:51:15.277Z,30.6
2019-06-10T11:54:15.399Z,29.9
2019-06-10T11:57:15.123Z,30.1
2019-06-10T12:00:17.399Z,30.7
2019-06-10T12:03:16.001Z,30.8
2019-06-10T12:06:15.937Z,30.8
2019-06-10T12:09:15.468Z,30.6
2019-06-10T12:12:15.743Z,30.7
2019-06-10T12:15:15.246Z,30.6
2019-06-10T12:18:15.237Z,30.6
2019-06-10T12:21:15.649Z,30.3
2019-06-10T12:24:16.236Z,30.6
2019-06-10T12:27:15.916Z,30.8
2019-06-10T12:30:15.183Z,31.1
2019-06-10T12:33:21.529Z,31.6
2019-06-10T12:36:15.630Z,31.9
2019-06-10T12:39:17.375Z,32.0
2019-06-10T12:42:15.599Z,33.2
2019-06-10T12:45:15.355Z,33.3
2019-06-10T12:48:16.054Z,34.6
2019-06-10T12:51:15.844Z,34.2
2019-06-10T12:54:15.066Z,33.9
2019-06-10T12:57:16.474Z,33.5
2019-06-10T13:00:20.359Z,33.2
2019-06-10T13:03:15.528Z,32.9
2019-06-10T13:06:15.064Z,32.7
2019-06-10T13:09:15.884Z,32.3
2019-06-10T13:12:15.457Z,31.8
2019-06-10T13:15:15.674Z,32.6
2019-06-10T13:18:19.283Z,32.6
2019-06-10T13:21:17.820Z,32.3
2019-06-10T13:24:15.678Z,32.8
2019-06-10T13:27:15.207Z,32.8
2019-06-10T13:30:15.259Z,32.9
2019-06-10T13:33:15.710Z,32.4
2019-06-10T13:36:15.676Z,32.9
2019-06-10T13:39:15.593Z,33.3
2019-06-10T13:42:16.019Z,33.8
2019-06-10T13:45:15.093Z,34.1
2019-06-10T13:48:15.520Z,34.5
2019-06-10T13:51:15.910Z,35.0
2019-06-10T13:54:15.692Z,35.2
2019-06-10T13:57:15.608Z,36.0
2019-06-10T14:00:15.562Z,37.0
2019-06-10T14:03:16.262Z,38.2
2019-06-10T14:06:33.150Z,39.2
2019-06-10T14:09:16.749Z,40.5
2019-06-10T14:12:17.351Z,41.5
2019-06-10T14:15:16.937Z,41.6
2019-06-10T14:18:15.866Z,42.2
2019-06-10T14:21:18.463Z,42.4
2019-06-10T14:24:16.338Z,42.9
2019-06-10T14:27:17.459Z,43.1
2019-06-10T14:30:15.559Z,43.3
2019-06-10T14:33:16.650Z,44.4
2019-06-10T14:36:16.907Z,44.8
2019-06-10T14:39:16.067Z,46.7
2019-06-10T14:42:16.347Z,47.2
2019-06-10T14:45:16.564Z,47.1
2019-06-10T14:48:17.209Z,46.3
2019-06-10T14:51:16.996Z,45.8
2019-06-10T14:54:17.923Z,45.2
2019-06-10T14:57:16.850Z,44.4
2019-06-10T15:00:16.706Z,44.2
2019-06-10T15:03:19.007Z,44.2
2019-06-10T15:06:15.963Z,44.4
2019-06-10T15:09:15.781Z,44.8
2019-06-10T15:12:17.398Z,45.1
2019-06-10T15:15:16.244Z,45.4
2019-06-10T15:18:18.044Z,45.8
2019-06-10T15:21:17.258Z,45.7
2019-06-10T15:24:16.326Z,45.9
2019-06-10T15:27:25.582Z,46.3
2019-06-10T15:30:23.441Z,46.2
2019-06-10T15:33:16.635Z,46.8
2019-06-10T15:36:15.549Z,48.0
2019-06-10T15:39:19.334Z,48.3
2019-06-10T15:42:15.513Z,49.4
2019-06-10T15:45:17.977Z,50.2
2019-06-10T15:48:17.241Z,50.6
2019-06-10T15:51:19.109Z,51.1
2019-06-10T15:54:17.334Z,50.8
2019-06-10T15:57:33.395Z,50.8
2019-06-10T16:00:20.246Z,50.7
2019-06-10T16:03:17.341Z,51.3
2019-06-10T16:06:16.057Z,50.4
2019-06-10T16:09:16.882Z,49.4
2019-06-10T16:12:17.771Z,48.5
2019-06-10T16:15:16.563Z,48.5
2019-06-10T16:18:17.156Z,48.4
2019-06-10T16:21:17.093Z,47.9
2019-06-10T16:24:16.797Z,47.0
2019-06-10T16:27:16.137Z,47.4
2019-06-10T16:30:16.049Z,47.1
2019-06-10T16:33:16.299Z,47.1
2019-06-10T16:36:15.341Z,47.5
2019-06-10T16:39:15.424Z,48.0
2019-06-10T16:42:15.961Z,48.1
2019-06-10T16:45:16.101Z,48.4
2019-06-10T16:48:15.509Z,49.0
2019-06-10T16:51:15.010Z,49.1
2019-06-10T16:54:15.903Z,49.3
2019-06-10T16:57:15.503Z,49.4
2019-06-10T17:00:15.947Z,50.2
2019-06-10T17:03:15.299Z,50.4
2019-06-10T17:06:15.930Z,51.2
2019-06-10T17:09:15.161Z,50.3
2019-06-10T17:12:15.187Z,50.4
2019-06-10T17:15:15.469Z,50.3
2019-06-10T17:18:15.159Z,50.1
2019-06-10T17:21:15.186Z,50.4
2019-06-10T17:24:15.688Z,50.6
2019-06-10T17:27:15.463Z,50.3
2019-06-10T17:30:15.065Z,50.1
2019-06-10T17:33:15.134Z,50.6
2019-06-10T17:36:15.564Z,50.6
2019-06-10T17:39:15.561Z,50.6
2019-06-10T17:42:15.183Z,51.1
2019-06-10T17:45:15.357Z,51.2
2019-06-10T17:48:15.201Z,51.4
2019-06-10T17:51:15.142Z,52.0
2019-06-10T17:54:15.069Z,52.1
2019-06-10T17:57:15.006Z,52.2
2019-06-10T18:00:15.578Z,52.2
2019-06-10T18:03:15.529Z,52.6
2019-06-10T18:06:15.232Z,52.8
2019-06-10T18:09:15.505Z,52.7
2019-06-10T18:12:15.455Z,53.1
2019-06-10T18:15:15.869Z,53.4
2019-06-10T18:18:15.199Z,53.3
2019-06-10T18:21:15.623Z,53.7
2019-06-10T18:24:15.398Z,53.7
2019-06-10T18:27:15.345Z,53.7
2019-06-10T18:30:15.511Z,53.7
2019-06-10T18:33:15.557Z,54.0
2019-06-10T18:36:15.537Z,54.1
2019-06-10T18:39:15.167Z,53.8
2019-06-10T18:42:15.138Z,53.9
2019-06-10T18:45:15.941Z,54.4
2019-06-10T18:48:15.122Z,54.2
2019-06-10T18:51:15.822Z,54.9
2019-06-10T18:54:15.355Z,54.8
2019-06-10T18:57:15.054Z,55.4
2019-06-10T19:00:15.808Z,55.1
2019-06-10T19:03:16.864Z,55.3
2019-06-10T19:06:16.233Z,55.1
2019-06-10T19:09:15.654Z,55.0
2019-06-10T19:12:15.612Z,55.3
2019-06-10T19:15:15.443Z,55.2
2019-06-10T19:18:15.566Z,55.3
2019-06-10T19:21:16.055Z,55.2
2019-06-10T19:24:15.759Z,55.7
2019-06-10T19:27:15.123Z,55.2
2019-06-10T19:30:15.623Z,55.3
2019-06-10T19:33:15.301Z,55.9
2019-06-10T19:36:15.962Z,55.3
2019-06-10T19:39:16.018Z,55.2
2019-06-10T19:42:15.948Z,55.6
2019-06-10T19:45:15.933Z,55.5
2019-06-10T19:48:15.106Z,55.9
2019-06-10T19:51:15.960Z,56.3
2019-06-10T19:54:15.468Z,57.2
2019-06-10T19:57:15.777Z,57.2
2019-06-10T20:00:15.603Z,58.3
2019-06-10T20:03:16.049Z,58.6
2019-06-10T20:06:15.606Z,59.3
2019-06-10T20:09:15.124Z,58.9
2019-06-10T20:12:15.848Z,59.6
2019-06-10T20:15:15.884Z,59.6
2019-06-10T20:18:15.265Z,58.9
2019-06-10T20:21:15.521Z,59.0
2019-06-10T20:24:15.286Z,58.8
2019-06-10T20:27:15.124Z,58.7
2019-06-10T20:30:24.162Z,58.5
2019-06-10T20:33:15.436Z,58.2
2019-06-10T20:36:22.022Z,58.1
2019-06-10T20:39:15.331Z,58.1
2019-06-10T20:42:15.326Z,58.5
2019-06-10T20:45:15.697Z,58.8
2019-06-10T20:48:15.781Z,58.4
2019-06-10T20:51:15.754Z,58.8
2019-06-10T20:54:15.776Z,58.8
2019-06-10T20:57:15.631Z,58.6
2019-06-10T21:00:22.446Z,58.5
2019-06-10T21:03:15.335Z,58.5
2019-06-10T21:06:15.804Z,58.6
2019-06-10T21:09:15.364Z,58.7
2019-06-10T21:12:15.328Z,58.7
2019-06-10T21:15:15.034Z,58.6
2019-06-10T21:18:15.690Z,58.2
2019-06-10T21:21:15.516Z,58.1
2019-06-10T21:24:15.005Z,58.1
2019-06-10T21:27:15.834Z,57.8
2019-06-10T21:30:15.292Z,58.2
2019-06-10T21:33:15.692Z,57.7
2019-06-10T21:36:15.827Z,57.6
2019-06-10T21:39:15.553Z,57.5
2019-06-10T21:42:15.499Z,57.5
2019-06-10T21:45:15.092Z,57.6
2019-06-10T21:48:15.139Z,57.6
2019-06-10T21:51:15.858Z,57.7
2019-06-10T21:54:15.116Z,57.7
2019-06-10T21:57:15.418Z,57.8
2019-06-10T22:00:15.546Z,57.8
2019-06-10T22:03:15.240Z,57.8
2019-06-10T22:06:15.628Z,57.5
2019-06-10T22:09:15.613Z,57.4
2019-06-10T22:12:15.453Z,57.2
2019-06-10T22:15:15.187Z,57.2
2019-06-10T22:18:15.901Z,56.9
2019-06-10T22:21:15.806Z,56.7
2019-06-10T22:24:15.034Z,56.5
2019-06-10T22:27:15.959Z,56.3
2019-06-10T22:30:15.070Z,56.3
2019-06-10T22:33:15.633Z,56.8
2019-06-10T22:36:15.441Z,57.0
2019-06-10T22:39:15.071Z,56.2
2019-06-10T22:42:15.954Z,56.5
2019-06-10T22:45:15.117Z,57.1
2019-06-10T22:48:15.775Z,58.4
2019-06-10T22:51:15.683Z,59.6
2019-06-10T22:54:15.440Z,62.2
2019-06-10T22:57:15.794Z,62.7
2019-06-10T23:00:15.973Z,62.8
2019-06-10T23:03:15.841Z,64.3
2019-06-10T23:06:15.704Z,65.1
2019-06-10T23:09:15.165Z,63.4
2019-06-10T23:12:15.914Z,63.1
2019-06-10T23:15:15.743Z,63.8
2019-06-10T23:18:15.866Z,63.4
2019-06-10T23:21:15.418Z,62.8
2019-06-10T23:24:15.331Z,62.7
2019-06-10T23:27:15.712Z,62.1
2019-06-10T23:30:15.208Z,62.7
2019-06-10T23:33:15.310Z,63.2
2019-06-10T23:36:15.764Z,63.0
2019-06-10T23:39:15.436Z,62.7
2019-06-10T23:42:15.936Z,62.6
2019-06-10T23:45:15.524Z,62.3
2019-06-10T23:48:15.118Z,63.0
2019-06-10T23:51:15.260Z,62.5
2019-06-10T23:54:15.540Z,62.1
2019-06-10T23:57:15.911Z,63.2
